Time,TemperatureF,DewpointF,PressureIn,WindDirection,WindDirectionDegrees,WindSpeedMPH,WindSpeedGustMPH,Humidity,HourlyPrecipIn,Conditions,Clouds,dailyrainin,SoftwareType,DateUTC
2013-03-20 00:03:00,67.0,62.0,-100.00,WNW,301,3.0,5.0,85,0.00,,,0.00,,2013-03-20 10:03:00,
2013-03-20 00:12:00,67.0,62.0,-100.00,WNW,301,3.0,5.0,85,0.00,,,0.00,,2013-03-20 10:12:00,
2013-03-20 00:22:00,67.0,62.0,-100.00,WNW,301,3.0,5.0,85,0.00,,,0.00,,2013-03-20 10:22:00,
2013-03-20 00:32:00,67.0,62.0,-100.00,WNW,301,3.0,5.0,85,0.00,,,0.00,,2013-03-20 10:32:00,
2013-03-20 00:41:00,69.0,63.0,-100.00,NNE,18,3.0,5.0,82,0.00,,,0.00,,2013-03-20 10:41:00,
2013-03-20 01:02:00,69.0,63.0,-100.00,NNE,18,3.0,5.0,82,0.00,,,0.00,,2013-03-20 11:02:00,
2013-03-20 01:12:00,69.0,63.0,-100.00,NNE,18,3.0,5.0,82,0.00,,,0.00,,2013-03-20 11:12:00,
2013-03-20 01:22:00,69.0,63.0,-100.00,NNE,18,3.0,5.0,82,0.00,,,0.00,,2013-03-20 11:22:00,
2013-03-20 01:32:00,69.0,63.0,-100.00,NNE,18,3.0,5.0,82,0.00,,,0.00,,2013-03-20 11:32:00,
2013-03-20 01:41:00,66.0,62.0,-100.00,ESE,115,1.0,5.0,87,0.00,,,0.00,,2013-03-20 11:41:00,
2013-03-20 02:02:00,66.0,62.0,-100.00,ESE,115,1.0,5.0,87,0.00,,,0.00,,2013-03-20 12:02:00,
2013-03-20 02:12:00,66.0,62.0,-100.00,ESE,115,1.0,5.0,87,0.00,,,0.00,,2013-03-20 12:12:00,
2013-03-20 02:22:00,66.0,62.0,-100.00,ESE,115,1.0,5.0,87,0.00,,,0.00,,2013-03-20 12:22:00,
2013-03-20 02:32:00,66.0,62.0,-100.00,ESE,115,1.0,5.0,87,0.00,,,0.00,,2013-03-20 12:32:00,
2013-03-20 02:41:00,65.0,63.0,-100.00,NNE,12,2.0,4.0,93,0.00,,,0.00,,2013-03-20 12:41:00,
2013-03-20 03:03:00,65.0,63.0,-100.00,NNE,12,2.0,4.0,93,0.00,,,0.00,,2013-03-20 13:03:00,
2013-03-20 03:12:00,65.0,63.0,-100.00,NNE,12,2.0,4.0,93,0.00,,,0.00,,2013-03-20 13:12:00,
2013-03-20 03:22:00,65.0,63.0,-100.00,NNE,12,2.0,4.0,93,0.00,,,0.00,,2013-03-20 13:22:00,
2013-03-20 03:32:00,65.0,63.0,-100.00,NNE,12,2.0,4.0,93,0.00,,,0.00,,2013-03-20 13:32:00,
2013-03-20 03:41:00,64.0,61.0,-100.00,North,349,2.0,6.0,91,0.00,,,0.00,,2013-03-20 13:41:00,
2013-03-20 04:02:00,64.0,61.0,-100.00,North,349,2.0,6.0,91,0.00,,,0.00,,2013-03-20 14:02:00,
2013-03-20 04:12:00,64.0,61.0,-100.00,North,349,2.0,6.0,91,0.00,,,0.00,,2013-03-20 14:12:00,
2013-03-20 04:22:00,64.0,61.0,-100.00,North,349,2.0,6.0,91,0.00,,,0.00,,2013-03-20 14:22:00,
2013-03-20 04:32:00,64.0,61.0,-100.00,North,349,2.0,6.0,91,0.00,,,0.00,,2013-03-20 14:32:00,
2013-03-20 04:41:00,63.0,62.0,-100.00,NW,311,1.0,3.0,95,0.00,,,0.00,,2013-03-20 14:41:00,
2013-03-20 05:02:00,63.0,62.0,-100.00,NW,311,1.0,3.0,95,0.00,,,0.00,,2013-03-20 15:02:00,
2013-03-20 05:12:00,63.0,62.0,-100.00,NW,311,1.0,3.0,95,0.00,,,0.00,,2013-03-20 15:12:00,
2013-03-20 05:22:00,63.0,62.0,-100.00,NW,311,1.0,3.0,95,0.00,,,0.00,,2013-03-20 15:22:00,
2013-03-20 05:33:00,63.0,62.0,-100.00,NW,311,1.0,3.0,95,0.00,,,0.00,,2013-03-20 15:33:00,
2013-03-20 05:41:00,64.0,62.0,-100.00,North,355,3.0,5.0,94,0.00,,,0.00,,2013-03-20 15:41:00,
2013-03-20 06:03:00,64.0,62.0,-100.00,North,355,3.0,5.0,94,0.00,,,0.00,,2013-03-20 16:03:00,
2013-03-20 06:12:00,64.0,62.0,-100.00,North,355,3.0,5.0,94,0.00,,,0.00,,2013-03-20 16:12:00,
2013-03-20 06:23:00,64.0,62.0,-100.00,North,355,3.0,5.0,94,0.00,,,0.00,,2013-03-20 16:23:00,
2013-03-20 06:32:00,64.0,62.0,-100.00,North,355,3.0,5.0,94,0.00,,,0.00,,2013-03-20 16:32:00,
2013-03-20 06:41:00,63.0,60.0,-100.00,NNW,338,3.0,5.0,91,0.00,,,0.00,,2013-03-20 16:41:00,
2013-03-20 07:03:00,63.0,60.0,-100.00,NNW,338,3.0,5.0,91,0.00,,,0.00,,2013-03-20 17:03:00,
2013-03-20 07:12:00,63.0,60.0,-100.00,NNW,338,3.0,5.0,91,0.00,,,0.00,,2013-03-20 17:12:00,
2013-03-20 07:22:00,63.0,60.0,-100.00,NNW,338,3.0,5.0,91,0.00,,,0.00,,2013-03-20 17:22:00,
2013-03-20 07:32:00,63.0,60.0,-100.00,NNW,338,3.0,5.0,91,0.00,,,0.00,,2013-03-20 17:32:00,
2013-03-20 07:41:00,67.0,64.0,-100.00,NNE,33,3.0,4.0,91,0.00,,,0.00,,2013-03-20 17:41:00,
2013-03-20 08:02:00,67.0,64.0,-100.00,NNE,33,3.0,4.0,91,0.00,,,0.00,,2013-03-20 18:02:00,
2013-03-20 08:12:00,67.0,64.0,-100.00,NNE,33,3.0,4.0,91,0.00,,,0.00,,2013-03-20 18:12:00,
2013-03-20 08:22:00,67.0,64.0,-100.00,NNE,33,3.0,4.0,91,0.00,,,0.00,,2013-03-20 18:22:00,
2013-03-20 08:32:00,67.0,64.0,-100.00,NNE,33,3.0,4.0,91,0.00,,,0.00,,2013-03-20 18:32:00,
2013-03-20 08:41:00,73.0,67.0,-100.00,NNE,29,3.0,5.0,82,0.00,,,-99.99,,2013-03-20 18:41:00,
2013-03-20 09:02:00,73.0,67.0,-100.00,NNE,29,3.0,5.0,82,0.00,,,-99.99,,2013-03-20 19:02:00,
2013-03-20 09:12:00,73.0,67.0,-100.00,NNE,29,3.0,5.0,82,0.00,,,-99.99,,2013-03-20 19:12:00,
2013-03-20 09:22:00,73.0,67.0,-100.00,NNE,29,3.0,5.0,82,0.00,,,-99.99,,2013-03-20 19:22:00,
2013-03-20 09:32:00,73.0,67.0,-100.00,NNE,29,3.0,5.0,82,0.00,,,-99.99,,2013-03-20 19:32:00,
2013-03-20 10:02:00,77.0,66.0,-100.00,ESE,119,7.0,11.0,70,0.00,,,0.00,,2013-03-20 20:02:00,
2013-03-20 10:12:00,77.0,66.0,-100.00,ESE,119,7.0,11.0,70,0.00,,,0.00,,2013-03-20 20:12:00,
2013-03-20 10:22:00,77.0,66.0,-100.00,ESE,119,7.0,11.0,70,0.00,,,0.00,,2013-03-20 20:22:00,
2013-03-20 10:32:00,77.0,66.0,-100.00,ESE,119,7.0,11.0,70,0.00,,,0.00,,2013-03-20 20:32:00,
2013-03-20 10:41:00,78.0,65.0,-100.00,SSE,158,7.0,12.0,65,0.00,,,0.00,,2013-03-20 20:41:00,
2013-03-20 11:02:00,78.0,65.0,-100.00,SSE,158,7.0,12.0,65,0.00,,,0.00,,2013-03-20 21:02:00,
2013-03-20 11:12:00,78.0,65.0,-100.00,SSE,158,7.0,12.0,65,0.00,,,0.00,,2013-03-20 21:12:00,
2013-03-20 11:22:00,78.0,65.0,-100.00,SSE,158,7.0,12.0,65,0.00,,,0.00,,2013-03-20 21:22:00,
2013-03-20 11:33:00,78.0,65.0,-100.00,SSE,158,7.0,12.0,65,0.00,,,0.00,,2013-03-20 21:33:00,
2013-03-20 11:41:00,78.0,63.0,-100.00,SSE,149,8.0,14.0,60,0.00,,,0.00,,2013-03-20 21:41:00,
2013-03-20 12:03:00,78.0,63.0,-100.00,SSE,149,8.0,14.0,60,0.00,,,0.00,,2013-03-20 22:03:00,
2013-03-20 12:12:00,78.0,63.0,-100.00,SSE,149,8.0,14.0,60,0.00,,,0.00,,2013-03-20 22:12:00,
2013-03-20 12:23:00,78.0,63.0,-100.00,SSE,149,8.0,14.0,60,0.00,,,0.00,,2013-03-20 22:23:00,
2013-03-20 12:32:00,78.0,63.0,-100.00,SSE,149,8.0,14.0,60,0.00,,,0.00,,2013-03-20 22:32:00,
2013-03-20 12:41:00,78.0,63.0,-100.00,South,169,6.0,14.0,61,0.00,,,0.00,,2013-03-20 22:41:00,
2013-03-20 13:02:00,78.0,63.0,-100.00,South,169,6.0,14.0,61,0.00,,,0.00,,2013-03-20 23:02:00,
2013-03-20 13:12:00,78.0,63.0,-100.00,South,169,6.0,14.0,61,0.00,,,0.00,,2013-03-20 23:12:00,
2013-03-20 13:22:00,78.0,63.0,-100.00,South,169,6.0,14.0,61,0.00,,,0.00,,2013-03-20 23:22:00,
2013-03-20 13:32:00,78.0,63.0,-100.00,South,169,6.0,14.0,61,0.00,,,0.00,,2013-03-20 23:32:00,
2013-03-20 13:41:00,79.0,66.0,-100.00,SSW,202,7.0,14.0,65,0.00,,,0.00,,2013-03-20 23:41:00,
2013-03-20 14:02:00,79.0,66.0,-100.00,SSW,202,7.0,14.0,65,0.00,,,0.00,,2013-03-21 00:02:00,
2013-03-20 14:12:00,79.0,66.0,-100.00,SSW,202,7.0,14.0,65,0.00,,,0.00,,2013-03-21 00:12:00,
2013-03-20 14:22:00,79.0,66.0,-100.00,SSW,202,7.0,14.0,65,0.00,,,0.00,,2013-03-21 00:22:00,
2013-03-20 14:32:00,79.0,66.0,-100.00,SSW,202,7.0,14.0,65,0.00,,,0.00,,2013-03-21 00:32:00,
2013-03-20 14:41:00,79.0,65.0,-100.00,SSE,149,8.0,12.0,62,0.00,,,0.00,,2013-03-21 00:41:00,
2013-03-20 15:02:00,79.0,65.0,-100.00,SSE,149,8.0,12.0,62,0.00,,,0.00,,2013-03-21 01:02:00,
2013-03-20 15:12:00,79.0,65.0,-100.00,SSE,149,8.0,12.0,62,0.00,,,0.00,,2013-03-21 01:12:00,
2013-03-20 15:22:00,79.0,65.0,-100.00,SSE,149,8.0,12.0,62,0.00,,,0.00,,2013-03-21 01:22:00,
2013-03-20 15:32:00,79.0,65.0,-100.00,SSE,149,8.0,12.0,62,0.00,,,0.00,,2013-03-21 01:32:00,
2013-03-20 15:41:00,80.0,65.0,-100.00,SSE,167,7.0,12.0,60,0.00,,,0.00,,2013-03-21 01:41:00,
2013-03-20 16:02:00,80.0,65.0,-100.00,SSE,167,7.0,12.0,60,0.00,,,0.00,,2013-03-21 02:02:00,
2013-03-20 16:12:00,80.0,65.0,-100.00,SSE,167,7.0,12.0,60,0.00,,,0.00,,2013-03-21 02:12:00,
2013-03-20 16:22:00,80.0,65.0,-100.00,SSE,167,7.0,12.0,60,0.00,,,0.00,,2013-03-21 02:22:00,
2013-03-20 16:32:00,80.0,65.0,-100.00,SSE,167,7.0,12.0,60,0.00,,,0.00,,2013-03-21 02:32:00,
2013-03-20 16:41:00,79.0,65.0,-100.00,SSE,148,7.0,12.0,63,0.00,,,0.00,,2013-03-21 02:41:00,
2013-03-20 17:02:00,79.0,65.0,-100.00,SSE,148,7.0,12.0,63,0.00,,,0.00,,2013-03-21 03:02:00,
2013-03-20 17:12:00,79.0,65.0,-100.00,SSE,148,7.0,12.0,63,0.00,,,0.00,,2013-03-21 03:12:00,
2013-03-20 17:22:00,79.0,65.0,-100.00,SSE,148,7.0,12.0,63,0.00,,,0.00,,2013-03-21 03:22:00,
2013-03-20 17:32:00,79.0,65.0,-100.00,SSE,148,7.0,12.0,63,0.00,,,0.00,,2013-03-21 03:32:00,
2013-03-20 17:41:00,77.0,66.0,-100.00,SSE,148,8.0,12.0,68,0.00,,,0.00,,2013-03-21 03:41:00,
2013-03-20 18:02:00,77.0,66.0,-100.00,SSE,148,8.0,12.0,68,0.00,,,0.00,,2013-03-21 04:02:00,
2013-03-20 18:12:00,77.0,66.0,-100.00,SSE,148,8.0,12.0,68,0.00,,,0.00,,2013-03-21 04:12:00,
2013-03-20 18:22:00,77.0,66.0,-100.00,SSE,148,8.0,12.0,68,0.00,,,0.00,,2013-03-21 04:22:00,
2013-03-20 18:32:00,77.0,66.0,-100.00,SSE,148,8.0,12.0,68,0.00,,,0.00,,2013-03-21 04:32:00,
2013-03-20 18:41:00,75.0,65.0,-100.00,SE,136,4.0,10.0,71,0.00,,,0.00,,2013-03-21 04:41:00,
2013-03-20 19:02:00,75.0,65.0,-100.00,SE,136,4.0,10.0,71,0.00,,,0.00,,2013-03-21 05:02:00,
2013-03-20 19:12:00,75.0,65.0,-100.00,SE,136,4.0,10.0,71,0.00,,,0.00,,2013-03-21 05:12:00,
2013-03-20 19:22:00,75.0,65.0,-100.00,SE,136,4.0,10.0,71,0.00,,,0.00,,2013-03-21 05:22:00,
2013-03-20 19:32:00,75.0,65.0,-100.00,SE,136,4.0,10.0,71,0.00,,,0.00,,2013-03-21 05:32:00,
2013-03-20 19:41:00,73.0,66.0,-100.00,SSE,150,3.0,8.0,78,0.00,,,0.00,,2013-03-21 05:41:00,
2013-03-20 20:02:00,73.0,66.0,-100.00,SSE,150,3.0,8.0,78,0.00,,,0.00,,2013-03-21 06:02:00,
2013-03-20 20:12:00,73.0,66.0,-100.00,SSE,150,3.0,8.0,78,0.00,,,0.00,,2013-03-21 06:12:00,
2013-03-20 20:22:00,73.0,66.0,-100.00,SSE,150,3.0,8.0,78,0.00,,,0.00,,2013-03-21 06:22:00,
2013-03-20 20:32:00,73.0,66.0,-100.00,SSE,150,3.0,8.0,78,0.00,,,0.00,,2013-03-21 06:32:00,
2013-03-20 20:41:00,71.0,66.0,-100.00,South,177,2.0,5.0,83,0.00,,,0.00,,2013-03-21 06:41:00,
2013-03-20 21:02:00,71.0,66.0,-100.00,South,177,2.0,5.0,83,0.00,,,0.00,,2013-03-21 07:02:00,
2013-03-20 21:12:00,71.0,66.0,-100.00,South,177,2.0,5.0,83,0.00,,,0.00,,2013-03-21 07:12:00,
2013-03-20 21:22:00,71.0,66.0,-100.00,South,177,2.0,5.0,83,0.00,,,0.00,,2013-03-21 07:22:00,
2013-03-20 21:32:00,71.0,66.0,-100.00,South,177,2.0,5.0,83,0.00,,,0.00,,2013-03-21 07:32:00,
2013-03-20 21:41:00,70.0,66.0,-100.00,West,277,1.0,2.0,86,0.00,,,0.00,,2013-03-21 07:41:00,
2013-03-20 22:02:00,70.0,66.0,-100.00,West,277,1.0,2.0,86,0.00,,,0.00,,2013-03-21 08:02:00,
2013-03-20 22:12:00,70.0,66.0,-100.00,West,277,1.0,2.0,86,0.00,,,0.00,,2013-03-21 08:12:00,
2013-03-20 22:22:00,70.0,66.0,-100.00,West,277,1.0,2.0,86,0.00,,,0.00,,2013-03-21 08:22:00,
2013-03-20 22:32:00,70.0,66.0,-100.00,West,277,1.0,2.0,86,0.00,,,0.00,,2013-03-21 08:32:00,
2013-03-20 22:41:00,70.0,67.0,-100.00,North,6,3.0,4.0,91,0.00,,,0.00,,2013-03-21 08:41:00,
2013-03-20 23:02:00,70.0,67.0,-100.00,North,6,3.0,4.0,91,0.00,,,0.00,,2013-03-21 09:02:00,
2013-03-20 23:11:00,70.0,67.0,-100.00,North,6,3.0,4.0,91,0.00,,,0.00,,2013-03-21 09:11:00,
2013-03-20 23:21:00,70.0,67.0,-100.00,North,6,3.0,4.0,91,0.00,,,0.00,,2013-03-21 09:21:00,
2013-03-20 23:33:00,70.0,67.0,-100.00,North,6,3.0,4.0,91,0.00,,,0.00,,2013-03-21 09:33:00,
2013-03-20 23:41:00,70.0,66.0,-100.00,NE,38,3.0,6.0,88,0.00,,,0.00,,2013-03-21 09:41:00,